Time;durP1;ratioP1;P1;durP2;ratioP2;P2;SDS_P1;SDS_P2;PMS_P1;PMS_P2;Temp;Humidity;BMP_temperature;BMP_pressure;BME280_temperature;BME280_humidity;BME280_pressure;Samples;Min_cycle;Max_cycle;Signal;HPM_P1;HPM_P2
2021/12/21 00:00:11;;;;;;;6.53;3.97;;;;;;;-0.53;nan;95284.41;6057945;23;20086;-86
2021/12/21 00:02:36;;;;;;;8.38;4.18;;;;;;;-0.19;nan;95342.50;6034880;23;20011;-86
2021/12/21 00:05:03;;;;;;;8.35;4.15;;;;;;;-0.30;nan;95346.50;6035825;23;20041;-86
2021/12/21 00:07:28;;;;;;;6.05;4.20;;;;;;;-0.79;nan;95280.03;6010562;23;20058;-86
2021/12/21 00:09:54;;;;;;;6.18;3.95;;;;;;;-0.27;nan;95351.31;6010680;23;20437;-85
2021/12/21 00:12:23;;;;;;;7.43;3.58;;;;;;;-1.17;nan;95216.53;6057680;23;20015;-86
2021/12/21 00:15:03;;;;;;;10.02;3.72;;;;;;;-0.60;nan;95330.50;6035782;23;20094;-85
2021/12/21 00:25:18;;;;;;;8.60;3.83;;;;;;;-1.15;nan;95253.56;6028436;23;20023;-86
2021/12/21 00:27:45;;;;;;;7.70;3.78;;;;;;;-0.53;nan;95341.72;6005715;23;20075;-86
2021/12/21 00:30:11;;;;;;;8.05;4.07;;;;;;;-1.08;nan;95246.56;6005648;23;20475;-86
2021/12/21 00:32:37;;;;;;;7.22;4.13;;;;;;;-3.22;nan;94924.38;6007688;23;20015;-86
2021/12/21 00:35:03;;;;;;;8.30;4.25;;;;;;;-1.00;nan;95259.38;6007099;23;20015;-87
2021/12/21 00:37:29;;;;;;;7.50;3.80;;;;;;;-1.86;nan;95133.63;5981751;23;20015;-86
2021/12/21 00:39:55;;;;;;;8.55;4.40;;;;;;;-0.84;nan;95298.03;5981073;23;20051;-86
2021/12/21 00:42:20;;;;;;;9.57;4.43;;;;;;;-0.26;nan;95384.22;5981491;23;20012;-86
2021/12/21 00:44:46;;;;;;;9.93;4.32;;;;;;;-0.32;nan;95385.03;6005376;23;20012;-86
2021/12/21 00:47:14;;;;;;;7.22;3.85;;;;;;;-0.29;nan;95384.59;6005186;23;20103;-86
2021/12/21 00:49:44;;;;;;;5.80;4.03;;;;;;;-0.55;nan;95338.53;6007415;23;20011;-86
2021/12/21 00:52:10;;;;;;;6.13;3.80;;;;;;;-0.99;nan;95281.78;5982678;23;20047;-86
2021/12/21 00:54:36;;;;;;;6.07;4.03;;;;;;;-0.59;nan;95352.13;6005144;23;20428;-87
2021/12/21 00:57:04;;;;;;;10.27;4.88;;;;;;;-0.33;nan;95398.25;5982357;23;20280;-87
2021/12/21 00:59:33;;;;;;;9.07;4.30;;;;;;;-1.52;nan;95213.28;6005942;23;20483;-87
2021/12/21 01:01:59;;;;;;;10.57;4.43;;;;;;;-0.44;nan;95390.00;6007469;23;20364;-87
2021/12/21 01:04:31;;;;;;;6.88;3.92;;;;;;;-1.68;nan;95214.44;6005604;23;20468;-89
2021/12/21 01:07:17;;;;;;;7.75;4.57;;;;;;;-1.03;nan;95316.25;5983019;23;20035;-90
2021/12/21 01:10:14;;;;;;;7.45;4.03;;;;;;;-0.95;nan;95332.47;6006189;23;20291;-89
2021/12/21 01:13:28;;;;;;;9.48;4.40;;;;;;;-1.20;nan;95284.56;6007989;23;20016;-88
2021/12/21 01:15:42;;;;;;;8.88;4.00;;;;;;;-1.07;nan;95305.44;6001788;23;20242;-88
2021/12/21 01:18:17;;;;;;;9.27;4.50;;;;;;;-0.61;nan;95370.56;6007932;23;20043;-89
2021/12/21 01:20:50;;;;;;;8.20;4.13;;;;;;;-1.99;nan;95151.81;5984697;23;20082;-90
2021/12/21 01:29:06;;;;;;;5.93;4.05;;;;;;;-0.52;nan;95400.63;6009563;23;20417;-89
2021/12/21 01:31:33;;;;;;;9.60;4.65;;;;;;;-1.00;nan;95332.28;6007780;23;20087;-89
2021/12/21 01:39:05;;;;;;;8.90;4.15;;;;;;;-0.67;nan;95387.00;6009652;23;20285;-89
2021/12/21 01:41:38;;;;;;;8.23;4.10;;;;;;;-0.59;nan;95436.28;5983831;23;20440;-90
2021/12/21 01:52:25;;;;;;;9.68;6.18;;;;;;;-2.75;nan;95078.44;4416834;23;10020765;-88
2021/12/21 01:54:52;;;;;;;9.18;5.28;;;;;;;-0.68;nan;95403.59;2064758;23;10002004;-87
2021/12/21 01:57:18;;;;;;;8.95;5.30;;;;;;;-1.40;nan;95270.75;6007125;23;20252;-89
2021/12/21 01:59:46;;;;;;;8.20;5.63;;;;;;;-0.56;nan;95411.66;5982876;23;20067;-88
2021/12/21 02:02:14;;;;;;;10.75;5.63;;;;;;;-0.92;nan;95349.50;6007470;23;20015;-88
2021/12/21 02:04:41;;;;;;;11.75;5.13;;;;;;;-0.54;nan;95402.66;6007150;23;20036;-85
2021/12/21 02:07:08;;;;;;;9.00;4.25;;;;;;;-1.44;nan;95290.31;6009675;23;20015;-85
2021/12/21 02:09:37;;;;;;;9.35;5.13;;;;;;;-1.47;nan;95280.31;6010219;23;20008;-85
2021/12/21 02:12:09;;;;;;;7.72;4.28;;;;;;;-0.65;nan;95389.41;6009322;23;20045;-85
2021/12/21 02:14:35;;;;;;;8.40;4.30;;;;;;;-1.42;nan;95285.72;6007621;23;20007;-85
2021/12/21 02:23:11;;;;;;;5.82;3.83;;;;;;;-1.10;nan;95329.25;6007362;23;20007;-85
2021/12/21 02:30:37;;;;;;;6.15;3.58;;;;;;;-1.58;nan;95310.28;6037903;23;20015;-85
2021/12/21 02:33:03;;;;;;;8.05;3.85;;;;;;;-1.32;nan;95322.59;6034275;23;20023;-85
2021/12/21 02:35:29;;;;;;;8.48;4.15;;;;;;;-1.07;nan;95370.50;6034808;23;20009;-85
2021/12/21 02:37:55;;;;;;;4.45;3.40;;;;;;;-1.41;nan;95292.53;6034730;23;20039;-85
2021/12/21 02:40:20;;;;;;;10.73;4.20;;;;;;;-1.71;nan;95251.25;6035457;23;20015;-85
2021/12/21 02:42:46;;;;;;;5.30;2.90;;;;;;;-1.04;nan;95383.13;6036104;23;20018;-85
2021/12/21 02:45:11;;;;;;;11.10;3.70;;;;;;;-1.25;nan;95355.44;6035882;23;20143;-84
2021/12/21 02:47:37;;;;;;;8.45;3.70;;;;;;;-1.30;nan;95334.41;6011878;23;20007;-85
2021/12/21 02:50:03;;;;;;;7.10;3.00;;;;;;;-1.00;nan;95399.97;6036182;23;20022;-88
2021/12/21 02:52:29;;;;;;;7.10;3.20;;;;;;;-2.76;nan;95128.75;6035247;23;20019;-88
2021/12/21 02:54:54;;;;;;;9.85;2.92;;;;;;;-2.50;nan;95159.19;6035510;23;20011;-87
2021/12/21 02:57:20;;;;;;;4.60;2.67;;;;;;;-1.10;nan;95391.72;6034123;23;20011;-87
2021/12/21 02:59:45;;;;;;;8.82;3.47;;;;;;;-1.38;nan;95310.38;6034814;23;20011;-86
2021/12/21 03:02:11;;;;;;;8.25;3.13;;;;;;;-1.76;nan;95258.03;6041217;23;20003;-87
2021/12/21 03:04:36;;;;;;;5.03;2.88;;;;;;;-1.09;nan;95392.50;6043861;23;20099;-87
2021/12/21 03:09:42;;;;;;;8.73;2.97;;;;;;;-1.12;nan;95357.25;6039915;23;20022;-87
2021/12/21 03:14:49;;;;;;;6.63;3.25;;;;;;;-0.94;nan;95409.59;6036732;23;20095;-86
2021/12/21 03:17:16;;;;;;;8.00;2.88;;;;;;;-1.27;nan;95359.22;6036294;23;20008;-87
2021/12/21 03:19:41;;;;;;;10.80;3.25;;;;;;;-1.90;nan;95288.38;6035715;23;20015;-87
2021/12/21 03:22:09;;;;;;;6.70;3.00;;;;;;;-2.68;nan;95206.47;6034625;23;20014;-87
2021/12/21 03:24:35;;;;;;;5.50;2.63;;;;;;;-1.03;nan;95423.78;6035643;23;20379;-89
2021/12/21 03:27:02;;;;;;;5.68;3.05;;;;;;;-1.55;nan;95320.31;6035316;23;20035;-87
2021/12/21 03:29:28;;;;;;;4.63;2.90;;;;;;;-3.71;nan;95004.88;6036008;23;20007;-86
2021/12/21 03:31:53;;;;;;;5.07;3.03;;;;;;;-3.83;nan;94979.69;6037252;23;20018;-87
2021/12/21 03:34:19;;;;;;;7.15;2.92;;;;;;;-3.86;nan;94967.91;6036667;23;20012;-87
2021/12/21 03:36:44;;;;;;;5.65;3.20;;;;;;;-1.35;nan;95385.41;6035373;23;20014;-87
2021/12/21 03:39:18;;;;;;;4.63;3.03;;;;;;;-2.42;nan;95235.16;6011577;23;20012;-87
2021/12/21 03:41:56;;;;;;;7.10;2.75;;;;;;;-1.25;nan;95378.84;6034849;23;20011;-87
2021/12/21 03:44:25;;;;;;;6.60;3.25;;;;;;;-2.19;nan;95270.44;6034389;23;20033;-87
2021/12/21 03:46:53;;;;;;;9.00;3.72;;;;;;;-1.36;nan;95376.81;6034937;23;20007;-87
2021/12/21 03:51:51;;;;;;;8.02;3.67;;;;;;;-1.87;nan;95287.19;6037092;23;20014;-87
2021/12/21 03:54:16;;;;;;;5.75;3.50;;;;;;;-1.88;nan;95283.78;6035048;23;20003;-86
2021/12/21 03:56:47;;;;;;;10.35;3.92;;;;;;;-1.17;nan;95396.91;6011677;23;20460;-87
2021/12/21 03:59:12;;;;;;;4.30;2.92;;;;;;;-1.86;nan;95315.59;6034903;23;20015;-89
2021/12/21 04:01:38;;;;;;;5.78;2.90;;;;;;;-1.33;nan;95378.22;6036012;23;20473;-87
2021/12/21 04:04:04;;;;;;;9.32;3.80;;;;;;;-1.08;nan;95439.19;6034901;23;20436;-88
2021/12/21 04:06:29;;;;;;;4.25;2.78;;;;;;;-1.79;nan;95328.63;6035937;23;20011;-87
2021/12/21 04:08:55;;;;;;;7.45;3.55;;;;;;;-1.47;nan;95390.38;6011309;23;20090;-88
2021/12/21 04:11:20;;;;;;;7.15;2.80;;;;;;;-1.96;nan;95323.72;6012002;23;20160;-87
2021/12/21 04:13:46;;;;;;;4.38;3.15;;;;;;;-2.03;nan;95345.47;6011602;23;20025;-88
2021/12/21 04:16:11;;;;;;;6.32;3.05;;;;;;;-1.53;nan;95403.34;6038515;23;20011;-88
2021/12/21 04:18:39;;;;;;;7.15;2.92;;;;;;;-1.20;nan;95445.91;6037130;23;20440;-88
2021/12/21 04:21:08;;;;;;;6.88;2.72;;;;;;;-1.20;nan;95436.31;6012014;23;20090;-86
2021/12/21 04:23:34;;;;;;;4.35;3.13;;;;;;;-1.78;nan;95345.81;6034997;23;20095;-86
2021/12/21 04:26:00;;;;;;;4.72;2.63;;;;;;;-2.21;nan;95278.41;6034685;23;20027;-86
2021/12/21 04:28:26;;;;;;;6.40;3.50;;;;;;;-2.13;nan;95298.25;6013207;23;20011;-87
2021/12/21 04:30:52;;;;;;;4.50;2.83;;;;;;;-4.03;nan;95018.41;6036550;23;20090;-88
2021/12/21 04:33:17;;;;;;;5.70;3.38;;;;;;;-1.92;nan;95349.34;6012782;23;20039;-86
2021/12/21 04:35:43;;;;;;;6.25;3.40;;;;;;;-2.07;nan;95311.31;6011173;23;20018;-86
2021/12/21 04:38:22;;;;;;;5.15;2.78;;;;;;;-1.43;nan;95417.59;6035248;23;20090;-87
2021/12/21 04:40:51;;;;;;;6.85;2.83;;;;;;;-1.24;nan;95444.72;6034627;23;20337;-87
2021/12/21 04:43:17;;;;;;;6.93;3.28;;;;;;;-2.88;nan;95187.34;6036144;23;20467;-86
2021/12/21 04:45:42;;;;;;;5.07;3.80;;;;;;;-1.65;nan;95387.47;6036132;23;20135;-86
2021/12/21 04:48:08;;;;;;;5.32;2.88;;;;;;;-1.13;nan;95435.53;6013829;23;20011;-88
2021/12/21 04:50:33;;;;;;;7.18;2.72;;;;;;;-1.11;nan;95449.16;6038160;23;20372;-87
2021/12/21 04:52:59;;;;;;;6.07;3.28;;;;;;;-3.44;nan;95088.84;6019571;23;20015;-87
2021/12/21 04:55:25;;;;;;;6.07;3.05;;;;;;;-3.83;nan;95053.06;6043099;23;20007;-87
2021/12/21 04:57:50;;;;;;;6.13;3.17;;;;;;;-1.50;nan;95411.56;6035382;23;20014;-87
2021/12/21 05:00:17;;;;;;;6.07;3.05;;;;;;;-1.63;nan;95411.50;6037070;23;20337;-89
2021/12/21 05:02:42;;;;;;;6.00;3.90;;;;;;;-5.98;nan;94770.53;6036325;23;20015;-87
2021/12/21 05:05:08;;;;;;;4.07;2.85;;;;;;;-2.93;nan;95194.91;6034297;23;20412;-86
2021/12/21 05:07:36;;;;;;;6.57;3.83;;;;;;;-2.53;nan;95286.84;6011646;23;20094;-87
2021/12/21 05:10:04;;;;;;;5.35;2.72;;;;;;;-1.69;nan;95405.28;6035887;23;20015;-88
2021/12/21 05:12:30;;;;;;;5.55;2.50;;;;;;;-1.23;nan;95474.94;6034738;23;20011;-86
2021/12/21 05:14:57;;;;;;;5.15;3.17;;;;;;;-3.88;nan;95045.81;6038210;23;20082;-87
2021/12/21 05:17:23;;;;;;;6.20;2.83;;;;;;;-2.17;nan;95339.41;6034882;23;20007;-88
2021/12/21 05:19:48;;;;;;;9.75;3.58;;;;;;;-2.48;nan;95287.88;6034632;23;20026;-86
2021/12/21 05:22:15;;;;;;;4.13;2.90;;;;;;;-3.35;nan;95144.72;6009581;23;20031;-86
2021/12/21 05:24:42;;;;;;;8.98;3.53;;;;;;;-2.32;nan;95310.16;6031305;23;20048;-86
2021/12/21 05:27:10;;;;;;;8.27;4.47;;;;;;;-1.34;nan;95476.28;6009387;23;20035;-85
2021/12/21 05:29:37;;;;;;;11.75;4.03;;;;;;;-2.27;nan;95325.94;6029345;23;20048;-86
2021/12/21 05:32:04;;;;;;;13.73;5.30;;;;;;;-3.53;nan;95116.69;6031178;23;20027;-87
2021/12/21 05:34:31;;;;;;;9.00;4.38;;;;;;;-1.82;nan;95406.97;6025856;23;20019;-87
2021/12/21 05:36:57;;;;;;;7.60;3.78;;;;;;;-2.66;nan;95271.16;6027713;23;20196;-84
2021/12/21 05:39:26;;;;;;;9.68;3.92;;;;;;;-2.22;nan;95331.41;6003497;23;20016;-84
2021/12/21 05:41:55;;;;;;;6.70;3.75;;;;;;;-1.83;nan;95405.41;6004352;23;20022;-84
2021/12/21 05:44:24;;;;;;;9.30;4.32;;;;;;;-4.90;nan;94979.00;6026159;23;20018;-85
2021/12/21 05:46:54;;;;;;;10.13;4.78;;;;;;;-4.34;nan;95062.75;6027026;23;20015;-84
2021/12/21 05:49:23;;;;;;;9.68;4.43;;;;;;;-4.35;nan;95059.34;6024642;23;20628;-85
2021/12/21 05:51:52;;;;;;;8.77;4.30;;;;;;;-8.32;nan;94467.41;6030882;23;20098;-88
2021/12/21 05:54:21;;;;;;;10.57;5.63;;;;;;;-4.04;nan;95213.66;6030274;23;20126;-84
2021/12/21 05:56:50;;;;;;;16.73;5.93;;;;;;;-7.54;nan;94636.78;6029187;23;20026;-84
2021/12/21 05:59:15;;;;;;;13.45;5.68;;;;;;;-3.65;nan;95164.00;6030224;23;20690;-85
2021/12/21 06:01:41;;;;;;;10.60;4.70;;;;;;;-7.47;nan;94575.84;6030831;23;20019;-84
2021/12/21 06:04:12;;;;;;;11.52;4.97;;;;;;;-2.92;nan;95269.19;6035759;23;20007;-84
2021/12/21 06:06:38;;;;;;;9.55;5.00;;;;;;;-7.59;nan;94579.84;6029529;23;20026;-83
2021/12/21 06:09:07;;;;;;;9.20;4.70;;;;;;;-6.06;nan;94801.59;6026295;23;20015;-84
2021/12/21 06:11:37;;;;;;;9.57;4.45;;;;;;;-1.70;nan;95466.09;6001668;23;20015;-85
2021/12/21 06:14:17;;;;;;;11.68;4.63;;;;;;;-3.38;nan;95307.69;6026234;23;20023;-84
2021/12/21 06:27:31;;;;;;;9.00;5.18;;;;;;;-1.36;nan;95553.72;6029865;23;20019;-85
2021/12/21 06:29:57;;;;;;;12.02;5.07;;;;;;;-5.32;nan;94948.66;6027332;23;20015;-84
2021/12/21 06:32:23;;;;;;;8.13;4.53;;;;;;;-4.75;nan;95040.03;6001447;23;20023;-87
2021/12/21 06:34:48;;;;;;;14.02;4.85;;;;;;;-3.46;nan;95253.34;6002793;23;20015;-84
2021/12/21 06:37:14;;;;;;;13.15;4.53;;;;;;;-1.58;nan;95552.97;6025902;23;20340;-85
2021/12/21 06:39:40;;;;;;;9.45;4.88;;;;;;;-1.99;nan;95524.25;6027364;23;20098;-85
2021/12/21 06:42:06;;;;;;;7.32;3.70;;;;;;;-2.02;nan;95544.63;6003805;23;20484;-84
2021/12/21 06:44:33;;;;;;;9.38;4.75;;;;;;;-3.87;nan;95204.69;6022779;23;20091;-87
2021/12/21 06:52:35;;;;;;;13.60;5.72;;;;;;;-1.89;nan;95551.72;6025784;23;20023;-85
2021/12/21 06:55:00;;;;;;;14.55;5.32;;;;;;;-1.56;nan;95589.19;6001179;23;20551;-86
2021/12/21 06:57:26;;;;;;;9.60;5.18;;;;;;;-2.13;nan;95486.13;5999804;23;20195;-85
2021/12/21 06:59:55;;;;;;;14.82;6.50;;;;;;;-1.99;nan;95516.47;6027526;23;20596;-84
2021/12/21 07:02:38;;;;;;;17.40;5.10;;;;;;;-3.48;nan;95261.28;6021927;23;20015;-85
2021/12/21 07:05:08;;;;;;;10.57;5.72;;;;;;;-6.80;nan;94813.72;6028486;23;20382;-83
2021/12/21 07:07:38;;;;;;;12.63;5.50;;;;;;;-1.61;nan;95661.78;6019957;23;20552;-84
2021/12/21 07:10:08;;;;;;;11.43;6.28;;;;;;;-4.19;nan;95177.44;6028848;23;20225;-87
2021/12/21 07:18:26;;;;;;;13.55;5.50;;;;;;;-2.17;nan;95534.28;6026348;23;20079;-87
2021/12/21 07:20:43;;;;;;;9.23;5.82;;;;;;;-5.09;nan;95037.25;6025871;23;20011;-85
2021/12/21 07:23:08;;;;;;;11.55;4.75;;;;;;;-1.98;nan;95571.81;6023527;23;20568;-86
2021/12/21 07:25:34;;;;;;;11.77;5.28;;;;;;;-2.53;nan;95442.63;5998047;23;20296;-87
2021/12/21 07:28:00;;;;;;;10.55;5.13;;;;;;;-1.76;nan;95590.84;6020038;23;20493;-87
2021/12/21 07:30:26;;;;;;;10.60;5.20;;;;;;;-2.42;nan;95442.13;6025913;23;20367;-87
2021/12/21 07:32:51;;;;;;;7.22;4.43;;;;;;;-1.89;nan;95551.72;6031656;23;20322;-86
2021/12/21 07:35:17;;;;;;;6.38;4.60;;;;;;;-3.12;nan;95342.44;6025899;23;20632;-86
2021/12/21 07:37:43;;;;;;;11.15;4.43;;;;;;;-2.04;nan;95510.19;6052922;23;20075;-86
2021/12/21 07:40:10;;;;;;;10.27;4.40;;;;;;;-2.75;nan;95413.28;6048871;23;20027;-87
2021/12/21 07:42:35;;;;;;;14.38;4.72;;;;;;;-1.22;nan;95627.50;6050279;23;20439;-86
2021/12/21 07:45:01;;;;;;;8.70;4.63;;;;;;;-1.80;nan;95551.41;6024561;23;20133;-87
2021/12/21 07:47:26;;;;;;;10.05;4.45;;;;;;;-3.17;nan;95302.50;6052008;23;20015;-86
2021/12/21 07:49:52;;;;;;;7.53;3.85;;;;;;;-1.11;nan;95637.38;6050820;23;20175;-87
2021/12/21 07:52:19;;;;;;;10.85;4.40;;;;;;;-1.06;nan;95626.38;6028263;23;20023;-87
2021/12/21 07:54:44;;;;;;;5.75;3.17;;;;;;;-1.22;nan;95604.84;6026372;23;20375;-86
2021/12/21 07:57:10;;;;;;;9.82;4.25;;;;;;;-1.59;nan;95546.16;6028672;23;20034;-85
2021/12/21 07:59:38;;;;;;;7.20;3.70;;;;;;;-1.17;nan;95635.53;6050116;23;20011;-86
2021/12/21 08:02:04;;;;;;;8.32;4.03;;;;;;;-1.90;nan;95529.31;6028457;23;20019;-86
2021/12/21 08:04:42;;;;;;;9.38;3.45;;;;;;;-3.92;nan;95251.06;6008371;23;20455;-87
2021/12/21 08:07:17;;;;;;;8.48;3.78;;;;;;;-1.04;nan;95671.25;6030833;23;20094;-85
2021/12/21 08:09:58;;;;;;;5.70;4.05;;;;;;;-1.89;nan;95552.50;6052653;23;20318;-87
2021/12/21 08:12:24;;;;;;;12.80;3.90;;;;;;;-1.41;nan;95615.94;6029048;23;20432;-85
2021/12/21 08:14:51;;;;;;;10.38;4.18;;;;;;;-1.03;nan;95650.25;6063961;23;20082;-87
2021/12/21 08:17:18;;;;;;;10.30;4.28;;;;;;;-0.99;nan;95656.66;6004286;23;20054;-86
2021/12/21 08:19:45;;;;;;;9.38;4.03;;;;;;;-0.97;nan;95656.47;6028623;23;20015;-85
2021/12/21 08:22:12;;;;;;;7.25;4.40;;;;;;;-2.01;nan;95482.06;6026914;23;20129;-87
2021/12/21 08:24:39;;;;;;;8.38;3.63;;;;;;;-1.00;nan;95651.66;6051701;23;20011;-87
2021/12/21 08:27:04;;;;;;;6.68;3.50;;;;;;;-4.33;nan;95191.22;6004656;23;20031;-86
2021/12/21 08:29:31;;;;;;;7.30;3.85;;;;;;;-6.51;nan;94760.53;6029523;23;20015;-86
2021/12/21 08:31:59;;;;;;;7.90;4.53;;;;;;;-1.12;nan;95664.38;6029569;23;20035;-88
2021/12/21 08:34:25;;;;;;;5.43;3.45;;;;;;;-1.24;nan;95648.50;6052588;23;20035;-86
2021/12/21 08:36:50;;;;;;;17.88;5.25;;;;;;;-1.12;nan;95603.72;6031480;23;20353;-87
2021/12/21 08:39:17;;;;;;;9.40;4.40;;;;;;;-2.51;nan;95419.88;6020001;23;20015;-86
2021/12/21 08:41:56;;;;;;;7.55;4.13;;;;;;;-3.45;nan;95222.03;6002614;23;20026;-87
2021/12/21 08:44:25;;;;;;;8.35;3.70;;;;;;;-0.57;nan;95688.78;6026530;23;20138;-88
2021/12/21 08:46:52;;;;;;;10.70;4.68;;;;;;;-1.61;nan;95529.16;6024882;23;20015;-87
2021/12/21 08:49:18;;;;;;;15.20;4.25;;;;;;;-3.19;nan;95240.41;6050066;23;20011;-86
2021/12/21 08:51:51;;;;;;;8.13;3.47;;;;;;;-0.34;nan;95691.13;6028340;23;20094;-88
2021/12/21 08:54:17;;;;;;;5.22;2.80;;;;;;;-1.19;nan;95538.63;6030672;23;20027;-85
2021/12/21 08:56:44;;;;;;;9.65;2.78;;;;;;;-0.28;nan;95698.16;6026620;23;20094;-87
2021/12/21 08:59:12;;;;;;;4.80;2.90;;;;;;;-0.35;nan;95708.56;6030218;23;20098;-87
2021/12/21 09:01:38;;;;;;;8.55;3.35;;;;;;;-1.40;nan;95564.72;6027227;23;20133;-88
2021/12/21 09:04:04;;;;;;;7.55;2.97;;;;;;;-2.31;nan;95404.47;6032502;23;20011;-88
2021/12/21 09:06:30;;;;;;;4.53;2.50;;;;;;;-1.42;nan;95584.91;6053319;23;20034;-89
2021/12/21 09:08:58;;;;;;;2.88;2.08;;;;;;;-2.25;nan;95406.31;6032830;23;20799;-87
2021/12/21 09:11:26;;;;;;;5.63;3.42;;;;;;;-6.88;nan;94746.75;6030680;23;20404;-89
2021/12/21 09:13:52;;;;;;;4.05;2.50;;;;;;;-2.82;nan;95343.13;6027863;23;20019;-89
2021/12/21 09:19:39;;;;;;;3.47;2.22;;;;;;;-2.45;nan;95408.75;6032096;23;20277;-87
2021/12/21 09:22:05;;;;;;;6.28;2.88;;;;;;;-4.02;nan;95172.84;6046842;23;20090;-88
2021/12/21 09:24:31;;;;;;;6.85;2.97;;;;;;;-5.92;nan;94875.66;6027814;23;20007;-88
2021/12/21 09:26:57;;;;;;;12.57;3.45;;;;;;;-2.32;nan;95406.25;6027185;23;20030;-87
2021/12/21 09:29:25;;;;;;;4.82;2.38;;;;;;;-4.79;nan;95050.94;6030850;23;20015;-87
2021/12/21 09:31:52;;;;;;;4.43;2.28;;;;;;;-2.79;nan;95334.97;6024596;23;20094;-87
2021/12/21 09:34:18;;;;;;;3.78;2.33;;;;;;;-2.81;nan;95310.97;6027522;23;20022;-87
2021/12/21 09:36:44;;;;;;;4.10;2.83;;;;;;;-0.64;nan;95654.09;6030582;23;20090;-88
2021/12/21 09:39:10;;;;;;;7.63;3.50;;;;;;;-1.33;nan;95545.53;6030504;23;20026;-85
2021/12/21 09:41:35;;;;;;;7.30;3.33;;;;;;;-0.63;nan;95643.47;6028475;23;20566;-85
2021/12/21 09:44:04;;;;;;;5.13;3.28;;;;;;;-0.38;nan;95682.88;6028611;23;20840;-85
2021/12/21 09:46:30;;;;;;;6.18;3.20;;;;;;;-1.20;nan;95589.84;6026021;23;20061;-85
2021/12/21 09:49:01;;;;;;;10.85;3.20;;;;;;;-1.01;nan;95617.03;6033670;23;20155;-86
2021/12/21 09:51:27;;;;;;;11.50;3.67;;;;;;;-1.44;nan;95558.25;6030248;23;20011;-87
2021/12/21 09:53:56;;;;;;;7.93;3.08;;;;;;;-1.16;nan;95637.16;6032672;23;20113;-86
2021/12/21 09:56:25;;;;;;;4.60;3.10;;;;;;;-1.65;nan;95527.91;6032487;23;20082;-87
2021/12/21 09:58:51;;;;;;;6.40;3.33;;;;;;;-0.50;nan;95700.88;6053519;23;20021;-85
2021/12/21 10:01:19;;;;;;;5.85;2.92;;;;;;;-0.55;nan;95695.44;6058205;23;20595;-88
2021/12/21 10:03:44;;;;;;;7.20;3.17;;;;;;;-1.19;nan;95611.47;6041496;23;20010;-88
2021/12/21 10:06:13;;;;;;;4.70;3.05;;;;;;;-1.59;nan;95540.97;6046925;23;20035;-87
2021/12/21 10:08:44;;;;;;;7.97;3.05;;;;;;;-3.85;nan;95135.34;6044743;23;20243;-85
2021/12/21 10:11:28;;;;;;;5.65;2.85;;;;;;;-2.22;nan;95450.09;6036320;23;20460;-85
2021/12/21 10:14:04;;;;;;;6.45;2.85;;;;;;;-2.84;nan;95349.50;6008353;23;20072;-85
2021/12/21 10:16:30;;;;;;;7.05;2.92;;;;;;;-1.15;nan;95571.09;6034466;23;20015;-84
2021/12/21 10:18:56;;;;;;;5.20;2.95;;;;;;;-1.02;nan;95576.38;6037009;23;20021;-84
2021/12/21 10:21:25;;;;;;;4.78;2.75;;;;;;;0.24;nan;95681.91;6034408;23;20011;-86
2021/12/21 10:23:51;;;;;;;4.88;3.13;;;;;;;-0.31;nan;95612.56;6032885;23;20418;-86
2021/12/21 10:26:23;;;;;;;6.43;3.45;;;;;;;-0.08;nan;95659.97;6032038;23;20110;-87
2021/12/21 10:28:51;;;;;;;;;;;;;;;0.31;nan;95698.38;6035546;23;20096;-86
2021/12/21 10:31:36;;;;;;;9.27;3.30;;;;;;;0.21;nan;95654.44;6034558;23;19997;-87
2021/12/21 10:34:09;;;;;;;9.07;3.20;;;;;;;-0.43;nan;95574.03;6031749;23;20610;-86
2021/12/21 10:36:46;;;;;;;5.53;3.25;;;;;;;-1.51;nan;95409.16;6027456;23;20605;-86
2021/12/21 10:39:22;;;;;;;6.60;3.05;;;;;;;-1.76;nan;95386.25;6033433;23;20034;-86
2021/12/21 10:41:49;;;;;;;7.20;2.58;;;;;;;-0.13;nan;95637.06;6027848;23;20022;-86
2021/12/21 10:44:19;;;;;;;6.15;2.83;;;;;;;-0.13;nan;95634.47;6003775;23;20076;-85
2021/12/21 10:46:49;;;;;;;4.18;2.75;;;;;;;-0.63;nan;95572.34;6022880;23;20428;-86
2021/12/21 10:49:19;;;;;;;5.40;3.17;;;;;;;0.06;nan;95648.56;6024341;23;20377;-85
2021/12/21 10:52:07;;;;;;;5.82;3.60;;;;;;;0.55;nan;95704.84;6010778;23;20015;-85
2021/12/21 10:54:46;;;;;;;6.72;3.75;;;;;;;0.86;nan;95686.00;6036151;23;20015;-84
2021/12/21 10:57:19;;;;;;;7.38;3.47;;;;;;;0.69;nan;95685.59;6037443;23;20479;-87
2021/12/21 10:59:53;;;;;;;8.23;3.97;;;;;;;0.55;nan;95674.34;6033907;23;20015;-86
2021/12/21 11:02:32;;;;;;;5.05;3.05;;;;;;;-1.12;nan;95482.19;6001203;23;20007;-85
2021/12/21 11:05:06;;;;;;;6.60;3.38;;;;;;;-0.09;nan;95697.47;6030394;23;20071;-87
2021/12/21 11:10:16;;;;;;;8.80;3.67;;;;;;;-0.26;nan;95693.56;6033464;23;20034;-85
2021/12/21 11:12:46;;;;;;;6.22;3.25;;;;;;;-0.09;nan;95708.69;6002993;23;20359;-86
2021/12/21 11:15:15;;;;;;;5.25;2.90;;;;;;;-1.90;nan;95427.94;6005766;23;20034;-86
2021/12/21 11:17:40;;;;;;;11.02;2.75;;;;;;;0.21;nan;95672.69;6005452;23;20025;-88
2021/12/21 11:20:09;;;;;;;8.98;3.95;;;;;;;0.09;nan;95623.88;6026288;23;20065;-86
2021/12/21 11:22:37;;;;;;;9.32;3.90;;;;;;;-1.08;nan;95415.75;6024721;23;20022;-86
2021/12/21 11:25:04;;;;;;;7.28;2.58;;;;;;;0.46;nan;95666.91;5999957;23;20023;-87
2021/12/21 11:27:32;;;;;;;6.45;2.55;;;;;;;-0.80;nan;95488.53;6014581;23;20019;-87
2021/12/21 11:30:45;;;;;;;9.43;2.47;;;;;;;-1.31;nan;95488.94;6025429;23;20441;-87
2021/12/21 11:33:11;;;;;;;5.80;2.28;;;;;;;0.23;nan;95664.66;5988430;23;20096;-87
2021/12/21 11:38:08;;;;;;;8.20;3.28;;;;;;;-2.45;nan;95260.72;5994149;23;20023;-87
2021/12/21 11:40:42;;;;;;;6.43;3.40;;;;;;;-0.56;nan;95539.31;6001711;23;20792;-88
2021/12/21 11:43:22;;;;;;;5.72;2.30;;;;;;;0.28;nan;95678.72;6020054;23;20034;-80
2021/12/21 11:45:55;;;;;;;5.20;3.50;;;;;;;0.46;nan;95670.31;6021495;23;20239;-81
2021/12/21 11:48:45;;;;;;;3.92;2.72;;;;;;;0.56;nan;95665.50;5999572;23;20568;-81
2021/12/21 11:51:12;;;;;;;6.75;3.10;;;;;;;0.41;nan;95619.72;6012176;23;20011;-81
2021/12/21 11:53:38;;;;;;;13.68;2.83;;;;;;;-0.85;nan;95496.13;6010044;23;20049;-82
2021/12/21 11:56:06;;;;;;;6.30;3.00;;;;;;;0.55;nan;95670.94;6030772;23;20015;-81
2021/12/21 11:58:38;;;;;;;7.47;2.83;;;;;;;-0.25;nan;95537.00;6003356;23;20096;-82
2021/12/21 12:01:23;;;;;;;8.73;3.53;;;;;;;0.44;nan;95648.03;6014719;23;20602;-80
2021/12/21 12:04:08;;;;;;;4.30;2.85;;;;;;;0.30;nan;95694.19;6030359;23;20015;-81
2021/12/21 12:06:52;;;;;;;8.98;3.42;;;;;;;-0.43;nan;95609.69;6001336;23;20026;-81
2021/12/21 12:09:24;;;;;;;5.80;3.60;;;;;;;-0.57;nan;95568.97;6029070;23;20019;-81
2021/12/21 12:12:03;;;;;;;5.82;3.13;;;;;;;0.12;nan;95686.09;6029538;23;20463;-81
2021/12/21 12:14:31;;;;;;;5.32;2.83;;;;;;;0.02;nan;95699.50;6027833;23;20945;-81
2021/12/21 12:17:05;;;;;;;8.68;3.60;;;;;;;-1.02;nan;95565.16;6002287;23;20054;-81
2021/12/21 12:19:33;;;;;;;8.27;3.25;;;;;;;-1.01;nan;95590.19;6029227;23;20550;-82
2021/12/21 12:22:02;;;;;;;5.03;3.45;;;;;;;-0.26;nan;95704.78;6031155;23;20015;-82
2021/12/21 12:24:36;;;;;;;4.72;3.00;;;;;;;-0.88;nan;95598.88;6002509;23;20610;-81
2021/12/21 12:27:09;;;;;;;7.13;3.40;;;;;;;-0.19;nan;95710.03;6021365;23;20019;-81
2021/12/21 12:29:50;;;;;;;5.60;3.60;;;;;;;-0.47;nan;95652.78;5999958;23;20022;-81
2021/12/21 12:32:39;;;;;;;10.43;3.58;;;;;;;-0.25;nan;95685.56;6026316;23;20011;-81
2021/12/21 12:35:20;;;;;;;6.82;3.35;;;;;;;-0.07;nan;95687.63;6027275;23;20011;-81
2021/12/21 12:38:00;;;;;;;8.05;3.42;;;;;;;-0.94;nan;95550.19;6018599;23;20019;-81
2021/12/21 12:40:40;;;;;;;12.70;3.88;;;;;;;-0.19;nan;95639.66;6021320;23;20405;-81
2021/12/21 12:43:09;;;;;;;4.80;3.17;;;;;;;0.42;nan;95683.97;6020427;23;20028;-81
2021/12/21 12:46:03;;;;;;;7.28;3.30;;;;;;;0.15;nan;95636.16;6022374;23;20015;-80
2021/12/21 12:48:40;;;;;;;14.43;3.50;;;;;;;0.76;nan;95704.72;6025727;23;20024;-79
2021/12/21 12:51:08;;;;;;;10.43;3.63;;;;;;;0.67;nan;95703.28;6023665;23;20522;-80
2021/12/21 12:53:51;;;;;;;7.38;3.30;;;;;;;0.34;nan;95649.22;6029042;23;20019;-80
2021/12/21 12:56:20;;;;;;;6.93;2.70;;;;;;;0.72;nan;95719.16;6031449;23;20471;-80
2021/12/21 12:58:53;;;;;;;5.22;3.15;;;;;;;0.16;nan;95714.19;6002445;23;20007;-81
2021/12/21 13:01:27;;;;;;;9.20;3.10;;;;;;;-0.59;nan;95610.81;6023993;23;20015;-80
2021/12/21 13:03:59;;;;;;;7.13;3.80;;;;;;;-0.13;nan;95714.47;6002238;23;20011;-81
2021/12/21 13:06:27;;;;;;;10.27;3.53;;;;;;;-0.17;nan;95721.09;6022561;23;20682;-82
2021/12/21 13:08:53;;;;;;;8.40;3.17;;;;;;;-0.82;nan;95641.56;6018749;23;20015;-81
2021/12/21 13:11:22;;;;;;;5.45;3.20;;;;;;;-1.20;nan;95599.47;6000622;23;20010;-81
2021/12/21 13:13:49;;;;;;;6.80;3.42;;;;;;;-1.20;nan;95615.88;6024925;23;20022;-81